sensor_id;sensor_type;location;lat;lon;timestamp;P1;durP1;ratioP1;P2;durP2;ratioP2
24143;SDS011;12307;50.828;6.080;2023-04-25T00:01:38;0.60;;;0.60;;
24143;SDS011;12307;50.828;6.080;2023-04-25T00:04:04;0.70;;;0.70;;
24143;SDS011;12307;50.828;6.080;2023-04-25T00:06:33;0.75;;;0.60;;
24143;SDS011;12307;50.828;6.080;2023-04-25T00:09:01;0.55;;;0.55;;
24143;SDS011;12307;50.828;6.080;2023-04-25T00:11:27;0.70;;;0.70;;
24143;SDS011;12307;50.828;6.080;2023-04-25T00:13:54;0.95;;;0.85;;
24143;SDS011;12307;50.828;6.080;2023-04-25T00:16:19;0.68;;;0.68;;
24143;SDS011;12307;50.828;6.080;2023-04-25T00:18:45;0.63;;;0.63;;
24143;SDS011;12307;50.828;6.080;2023-04-25T00:21:16;0.80;;;0.70;;
24143;SDS011;12307;50.828;6.080;2023-04-25T00:23:43;0.70;;;0.70;;
24143;SDS011;12307;50.828;6.080;2023-04-25T00:26:10;0.93;;;0.80;;
24143;SDS011;12307;50.828;6.080;2023-04-25T00:28:36;0.50;;;0.50;;
24143;SDS011;12307;50.828;6.080;2023-04-25T00:31:03;0.70;;;0.70;;
24143;SDS011;12307;50.828;6.080;2023-04-25T00:33:29;0.60;;;0.60;;
24143;SDS011;12307;50.828;6.080;2023-04-25T00:35:55;0.70;;;0.70;;
24143;SDS011;12307;50.828;6.080;2023-04-25T00:38:21;0.70;;;0.70;;
24143;SDS011;12307;50.828;6.080;2023-04-25T00:40:47;0.63;;;0.63;;
24143;SDS011;12307;50.828;6.080;2023-04-25T00:43:12;0.70;;;0.70;;
24143;SDS011;12307;50.828;6.080;2023-04-25T00:45:38;0.60;;;0.60;;
24143;SDS011;12307;50.828;6.080;2023-04-25T00:48:06;1.08;;;0.70;;
24143;SDS011;12307;50.828;6.080;2023-04-25T00:50:32;0.50;;;0.50;;
24143;SDS011;12307;50.828;6.080;2023-04-25T00:53:00;0.70;;;0.70;;
24143;SDS011;12307;50.828;6.080;2023-04-25T00:55:26;0.70;;;0.70;;
24143;SDS011;12307;50.828;6.080;2023-04-25T00:57:52;0.70;;;0.70;;
24143;SDS011;12307;50.828;6.080;2023-04-25T01:00:18;0.70;;;0.70;;
24143;SDS011;12307;50.828;6.080;2023-04-25T01:02:44;0.63;;;0.63;;
24143;SDS011;12307;50.828;6.080;2023-04-25T01:05:12;0.80;;;0.80;;
24143;SDS011;12307;50.828;6.080;2023-04-25T01:07:38;0.63;;;0.63;;
24143;SDS011;12307;50.828;6.080;2023-04-25T01:10:04;0.80;;;0.80;;
24143;SDS011;12307;50.828;6.080;2023-04-25T01:12:31;0.80;;;0.80;;
24143;SDS011;12307;50.828;6.080;2023-04-25T01:14:57;0.50;;;0.50;;
24143;SDS011;12307;50.828;6.080;2023-04-25T01:17:23;0.70;;;0.70;;
24143;SDS011;12307;50.828;6.080;2023-04-25T01:19:49;0.70;;;0.70;;
24143;SDS011;12307;50.828;6.080;2023-04-25T01:22:17;0.80;;;0.80;;
24143;SDS011;12307;50.828;6.080;2023-04-25T01:24:42;0.60;;;0.60;;
24143;SDS011;12307;50.828;6.080;2023-04-25T01:27:09;0.77;;;0.77;;
24143;SDS011;12307;50.828;6.080;2023-04-25T01:29:35;0.70;;;0.70;;
24143;SDS011;12307;50.828;6.080;2023-04-25T01:32:01;0.80;;;0.80;;
24143;SDS011;12307;50.828;6.080;2023-04-25T01:34:28;0.60;;;0.60;;
24143;SDS011;12307;50.828;6.080;2023-04-25T01:36:53;0.60;;;0.60;;
24143;SDS011;12307;50.828;6.080;2023-04-25T01:39:21;0.90;;;0.80;;
24143;SDS011;12307;50.828;6.080;2023-04-25T01:41:47;0.80;;;0.80;;
24143;SDS011;12307;50.828;6.080;2023-04-25T01:44:12;0.68;;;0.68;;
24143;SDS011;12307;50.828;6.080;2023-04-25T01:46:38;0.77;;;0.70;;
24143;SDS011;12307;50.828;6.080;2023-04-25T01:49:04;0.60;;;0.60;;
24143;SDS011;12307;50.828;6.080;2023-04-25T01:51:30;0.70;;;0.70;;
24143;SDS011;12307;50.828;6.080;2023-04-25T01:53:56;0.70;;;0.70;;
24143;SDS011;12307;50.828;6.080;2023-04-25T01:56:24;0.68;;;0.68;;
24143;SDS011;12307;50.828;6.080;2023-04-25T01:58:50;0.80;;;0.80;;
24143;SDS011;12307;50.828;6.080;2023-04-25T02:01:16;0.70;;;0.70;;
24143;SDS011;12307;50.828;6.080;2023-04-25T02:03:42;0.60;;;0.60;;
24143;SDS011;12307;50.828;6.080;2023-04-25T02:06:08;0.60;;;0.60;;
24143;SDS011;12307;50.828;6.080;2023-04-25T02:08:34;0.60;;;0.60;;
24143;SDS011;12307;50.828;6.080;2023-04-25T02:10:59;0.75;;;0.70;;
24143;SDS011;12307;50.828;6.080;2023-04-25T02:13:27;0.70;;;0.70;;
24143;SDS011;12307;50.828;6.080;2023-04-25T02:15:52;0.60;;;0.60;;
24143;SDS011;12307;50.828;6.080;2023-04-25T02:18:18;0.70;;;0.70;;
24143;SDS011;12307;50.828;6.080;2023-04-25T02:20:45;0.70;;;0.70;;
24143;SDS011;12307;50.828;6.080;2023-04-25T02:23:11;0.65;;;0.65;;
24143;SDS011;12307;50.828;6.080;2023-04-25T02:25:36;0.93;;;0.80;;
24143;SDS011;12307;50.828;6.080;2023-04-25T02:28:02;1.17;;;0.60;;
24143;SDS011;12307;50.828;6.080;2023-04-25T02:30:29;0.80;;;0.68;;
24143;SDS011;12307;50.828;6.080;2023-04-25T02:32:55;0.60;;;0.60;;
24143;SDS011;12307;50.828;6.080;2023-04-25T02:35:21;0.65;;;0.65;;
24143;SDS011;12307;50.828;6.080;2023-04-25T02:37:47;1.02;;;0.90;;
24143;SDS011;12307;50.828;6.080;2023-04-25T02:40:13;0.55;;;0.55;;
24143;SDS011;12307;50.828;6.080;2023-04-25T02:42:38;0.88;;;0.88;;
24143;SDS011;12307;50.828;6.080;2023-04-25T02:45:04;0.60;;;0.57;;
24143;SDS011;12307;50.828;6.080;2023-04-25T02:47:32;0.80;;;0.80;;
24143;SDS011;12307;50.828;6.080;2023-04-25T02:49:58;0.75;;;0.70;;
24143;SDS011;12307;50.828;6.080;2023-04-25T02:52:23;0.60;;;0.60;;
24143;SDS011;12307;50.828;6.080;2023-04-25T02:54:50;0.68;;;0.68;;
24143;SDS011;12307;50.828;6.080;2023-04-25T02:57:16;0.77;;;0.70;;
24143;SDS011;12307;50.828;6.080;2023-04-25T02:59:42;0.63;;;0.63;;
24143;SDS011;12307;50.828;6.080;2023-04-25T03:02:08;0.75;;;0.60;;
24143;SDS011;12307;50.828;6.080;2023-04-25T03:04:35;0.80;;;0.75;;
24143;SDS011;12307;50.828;6.080;2023-04-25T03:07:01;0.60;;;0.60;;
24143;SDS011;12307;50.828;6.080;2023-04-25T03:09:26;0.63;;;0.63;;
24143;SDS011;12307;50.828;6.080;2023-04-25T03:11:52;0.77;;;0.77;;
24143;SDS011;12307;50.828;6.080;2023-04-25T03:14:18;0.73;;;0.60;;
24143;SDS011;12307;50.828;6.080;2023-04-25T03:16:44;0.60;;;0.60;;
24143;SDS011;12307;50.828;6.080;2023-04-25T03:19:10;0.60;;;0.60;;
24143;SDS011;12307;50.828;6.080;2023-04-25T03:21:37;0.70;;;0.70;;
24143;SDS011;12307;50.828;6.080;2023-04-25T03:24:03;0.65;;;0.65;;
24143;SDS011;12307;50.828;6.080;2023-04-25T03:26:30;0.60;;;0.60;;
24143;SDS011;12307;50.828;6.080;2023-04-25T03:28:55;0.68;;;0.68;;
24143;SDS011;12307;50.828;6.080;2023-04-25T03:31:21;0.65;;;0.65;;
24143;SDS011;12307;50.828;6.080;2023-04-25T03:33:47;0.95;;;0.70;;
24143;SDS011;12307;50.828;6.080;2023-04-25T03:36:13;0.70;;;0.70;;
24143;SDS011;12307;50.828;6.080;2023-04-25T03:38:40;0.90;;;0.70;;
24143;SDS011;12307;50.828;6.080;2023-04-25T03:41:06;0.60;;;0.60;;
24143;SDS011;12307;50.828;6.080;2023-04-25T03:43:33;0.80;;;0.80;;
24143;SDS011;12307;50.828;6.080;2023-04-25T03:45:58;0.60;;;0.60;;
24143;SDS011;12307;50.828;6.080;2023-04-25T03:48:25;0.70;;;0.70;;
24143;SDS011;12307;50.828;6.080;2023-04-25T03:50:51;0.73;;;0.73;;
24143;SDS011;12307;50.828;6.080;2023-04-25T03:53:16;1.60;;;0.70;;
24143;SDS011;12307;50.828;6.080;2023-04-25T03:55:44;0.80;;;0.80;;
24143;SDS011;12307;50.828;6.080;2023-04-25T03:58:09;0.73;;;0.70;;
24143;SDS011;12307;50.828;6.080;2023-04-25T04:00:35;0.77;;;0.73;;
24143;SDS011;12307;50.828;6.080;2023-04-25T04:03:01;0.68;;;0.68;;
24143;SDS011;12307;50.828;6.080;2023-04-25T04:05:27;0.60;;;0.60;;
24143;SDS011;12307;50.828;6.080;2023-04-25T04:07:53;0.65;;;0.60;;
24143;SDS011;12307;50.828;6.080;2023-04-25T04:10:19;0.60;;;0.60;;
24143;SDS011;12307;50.828;6.080;2023-04-25T04:12:46;0.60;;;0.60;;
24143;SDS011;12307;50.828;6.080;2023-04-25T04:15:12;0.60;;;0.60;;
24143;SDS011;12307;50.828;6.080;2023-04-25T04:17:38;0.60;;;0.60;;
24143;SDS011;12307;50.828;6.080;2023-04-25T04:20:04;0.60;;;0.60;;
24143;SDS011;12307;50.828;6.080;2023-04-25T04:22:31;0.70;;;0.70;;
24143;SDS011;12307;50.828;6.080;2023-04-25T04:24:57;0.50;;;0.50;;
24143;SDS011;12307;50.828;6.080;2023-04-25T04:27:23;0.68;;;0.68;;
24143;SDS011;12307;50.828;6.080;2023-04-25T04:29:50;0.80;;;0.70;;
24143;SDS011;12307;50.828;6.080;2023-04-25T04:32:18;0.60;;;0.60;;
24143;SDS011;12307;50.828;6.080;2023-04-25T04:34:43;0.70;;;0.60;;
24143;SDS011;12307;50.828;6.080;2023-04-25T04:37:09;0.88;;;0.70;;
24143;SDS011;12307;50.828;6.080;2023-04-25T04:39:38;0.60;;;0.60;;
24143;SDS011;12307;50.828;6.080;2023-04-25T04:42:03;0.85;;;0.55;;
24143;SDS011;12307;50.828;6.080;2023-04-25T04:44:30;0.60;;;0.60;;
24143;SDS011;12307;50.828;6.080;2023-04-25T04:47:00;1.05;;;0.95;;
24143;SDS011;12307;50.828;6.080;2023-04-25T04:49:26;0.70;;;0.70;;
24143;SDS011;12307;50.828;6.080;2023-04-25T04:51:52;0.77;;;0.77;;
24143;SDS011;12307;50.828;6.080;2023-04-25T04:54:19;0.70;;;0.70;;
24143;SDS011;12307;50.828;6.080;2023-04-25T04:56:45;0.70;;;0.70;;
24143;SDS011;12307;50.828;6.080;2023-04-25T04:59:11;0.65;;;0.65;;
24143;SDS011;12307;50.828;6.080;2023-04-25T05:01:36;0.77;;;0.75;;
24143;SDS011;12307;50.828;6.080;2023-04-25T05:04:03;0.80;;;0.80;;
24143;SDS011;12307;50.828;6.080;2023-04-25T05:06:30;0.70;;;0.60;;
24143;SDS011;12307;50.828;6.080;2023-04-25T05:08:56;0.82;;;0.80;;
24143;SDS011;12307;50.828;6.080;2023-04-25T05:11:22;1.05;;;0.70;;
24143;SDS011;12307;50.828;6.080;2023-04-25T05:13:49;0.60;;;0.60;;
24143;SDS011;12307;50.828;6.080;2023-04-25T05:16:14;0.77;;;0.73;;
24143;SDS011;12307;50.828;6.080;2023-04-25T05:18:40;0.70;;;0.63;;
24143;SDS011;12307;50.828;6.080;2023-04-25T05:21:08;0.50;;;0.50;;
24143;SDS011;12307;50.828;6.080;2023-04-25T05:23:33;0.80;;;0.80;;
24143;SDS011;12307;50.828;6.080;2023-04-25T05:25:59;0.70;;;0.70;;
24143;SDS011;12307;50.828;6.080;2023-04-25T05:28:25;0.85;;;0.70;;
24143;SDS011;12307;50.828;6.080;2023-04-25T05:30:51;0.57;;;0.57;;
24143;SDS011;12307;50.828;6.080;2023-04-25T05:33:17;0.60;;;0.60;;
24143;SDS011;12307;50.828;6.080;2023-04-25T05:35:43;0.60;;;0.60;;
24143;SDS011;12307;50.828;6.080;2023-04-25T05:38:10;0.80;;;0.80;;
24143;SDS011;12307;50.828;6.080;2023-04-25T05:40:36;0.70;;;0.70;;
24143;SDS011;12307;50.828;6.080;2023-04-25T05:43:02;0.70;;;0.70;;
24143;SDS011;12307;50.828;6.080;2023-04-25T05:45:27;0.60;;;0.60;;
24143;SDS011;12307;50.828;6.080;2023-04-25T05:47:53;0.70;;;0.70;;
24143;SDS011;12307;50.828;6.080;2023-04-25T05:50:19;0.60;;;0.60;;
24143;SDS011;12307;50.828;6.080;2023-04-25T05:52:45;0.80;;;0.80;;
24143;SDS011;12307;50.828;6.080;2023-04-25T05:55:12;0.80;;;0.70;;
24143;SDS011;12307;50.828;6.080;2023-04-25T05:57:38;0.80;;;0.80;;
24143;SDS011;12307;50.828;6.080;2023-04-25T06:00:06;0.75;;;0.70;;
24143;SDS011;12307;50.828;6.080;2023-04-25T06:02:34;0.77;;;0.70;;
24143;SDS011;12307;50.828;6.080;2023-04-25T06:05:00;0.63;;;0.63;;
24143;SDS011;12307;50.828;6.080;2023-04-25T06:07:28;1.10;;;0.70;;
24143;SDS011;12307;50.828;6.080;2023-04-25T06:09:56;0.70;;;0.70;;
24143;SDS011;12307;50.828;6.080;2023-04-25T06:12:23;1.05;;;0.65;;
24143;SDS011;12307;50.828;6.080;2023-04-25T06:14:49;0.82;;;0.68;;
24143;SDS011;12307;50.828;6.080;2023-04-25T06:17:15;0.65;;;0.65;;
24143;SDS011;12307;50.828;6.080;2023-04-25T06:19:40;0.80;;;0.80;;
24143;SDS011;12307;50.828;6.080;2023-04-25T06:22:06;0.73;;;0.70;;
24143;SDS011;12307;50.828;6.080;2023-04-25T06:24:32;0.68;;;0.65;;
24143;SDS011;12307;50.828;6.080;2023-04-25T06:26:58;1.05;;;0.90;;
24143;SDS011;12307;50.828;6.080;2023-04-25T06:29:26;1.05;;;0.80;;
24143;SDS011;12307;50.828;6.080;2023-04-25T06:31:52;1.00;;;0.80;;
24143;SDS011;12307;50.828;6.080;2023-04-25T06:34:17;0.70;;;0.70;;
24143;SDS011;12307;50.828;6.080;2023-04-25T06:36:43;0.77;;;0.70;;
24143;SDS011;12307;50.828;6.080;2023-04-25T06:39:09;0.73;;;0.73;;
24143;SDS011;12307;50.828;6.080;2023-04-25T06:41:35;0.98;;;0.80;;
24143;SDS011;12307;50.828;6.080;2023-04-25T06:44:01;0.90;;;0.70;;
24143;SDS011;12307;50.828;6.080;2023-04-25T06:46:28;0.90;;;0.65;;
24143;SDS011;12307;50.828;6.080;2023-04-25T06:48:54;1.27;;;0.80;;
24143;SDS011;12307;50.828;6.080;2023-04-25T06:51:20;0.80;;;0.80;;
24143;SDS011;12307;50.828;6.080;2023-04-25T06:53:46;0.57;;;0.57;;
24143;SDS011;12307;50.828;6.080;2023-04-25T06:56:11;0.80;;;0.80;;
24143;SDS011;12307;50.828;6.080;2023-04-25T06:58:37;0.80;;;0.80;;
24143;SDS011;12307;50.828;6.080;2023-04-25T07:01:03;0.60;;;0.60;;
24143;SDS011;12307;50.828;6.080;2023-04-25T07:03:30;0.60;;;0.60;;
24143;SDS011;12307;50.828;6.080;2023-04-25T07:05:56;1.40;;;0.80;;
24143;SDS011;12307;50.828;6.080;2023-04-25T07:08:21;0.63;;;0.63;;
24143;SDS011;12307;50.828;6.080;2023-04-25T07:10:47;0.85;;;0.70;;
24143;SDS011;12307;50.828;6.080;2023-04-25T07:13:13;0.40;;;0.40;;
24143;SDS011;12307;50.828;6.080;2023-04-25T07:15:38;0.73;;;0.65;;
24143;SDS011;12307;50.828;6.080;2023-04-25T07:18:04;0.70;;;0.70;;
24143;SDS011;12307;50.828;6.080;2023-04-25T07:20:31;0.68;;;0.68;;
24143;SDS011;12307;50.828;6.080;2023-04-25T07:22:57;0.65;;;0.65;;
24143;SDS011;12307;50.828;6.080;2023-04-25T07:25:23;0.88;;;0.75;;
24143;SDS011;12307;50.828;6.080;2023-04-25T07:27:49;0.63;;;0.63;;
24143;SDS011;12307;50.828;6.080;2023-04-25T07:30:15;0.70;;;0.70;;
24143;SDS011;12307;50.828;6.080;2023-04-25T07:32:41;0.85;;;0.80;;
24143;SDS011;12307;50.828;6.080;2023-04-25T07:35:07;0.68;;;0.68;;
24143;SDS011;12307;50.828;6.080;2023-04-25T07:37:34;0.82;;;0.80;;
24143;SDS011;12307;50.828;6.080;2023-04-25T07:40:01;0.60;;;0.60;;
24143;SDS011;12307;50.828;6.080;2023-04-25T07:42:28;0.65;;;0.60;;
24143;SDS011;12307;50.828;6.080;2023-04-25T07:44:54;0.70;;;0.65;;
24143;SDS011;12307;50.828;6.080;2023-04-25T07:47:20;1.20;;;0.70;;
24143;SDS011;12307;50.828;6.080;2023-04-25T07:49:46;0.90;;;0.75;;
24143;SDS011;12307;50.828;6.080;2023-04-25T07:52:12;0.90;;;0.75;;
24143;SDS011;12307;50.828;6.080;2023-04-25T07:54:39;0.65;;;0.65;;
24143;SDS011;12307;50.828;6.080;2023-04-25T07:57:05;0.90;;;0.77;;
24143;SDS011;12307;50.828;6.080;2023-04-25T07:59:31;1.10;;;0.80;;
24143;SDS011;12307;50.828;6.080;2023-04-25T08:01:57;0.90;;;0.80;;
24143;SDS011;12307;50.828;6.080;2023-04-25T08:04:23;1.02;;;0.80;;
24143;SDS011;12307;50.828;6.080;2023-04-25T08:06:48;0.93;;;0.80;;
24143;SDS011;12307;50.828;6.080;2023-04-25T08:09:15;0.95;;;0.85;;
24143;SDS011;12307;50.828;6.080;2023-04-25T08:11:42;0.82;;;0.80;;
24143;SDS011;12307;50.828;6.080;2023-04-25T08:14:08;0.80;;;0.70;;
24143;SDS011;12307;50.828;6.080;2023-04-25T08:16:33;0.75;;;0.68;;
24143;SDS011;12307;50.828;6.080;2023-04-25T08:19:00;0.80;;;0.80;;
24143;SDS011;12307;50.828;6.080;2023-04-25T08:21:27;0.88;;;0.65;;
24143;SDS011;12307;50.828;6.080;2023-04-25T08:23:53;0.60;;;0.60;;
24143;SDS011;12307;50.828;6.080;2023-04-25T08:26:18;0.57;;;0.57;;
24143;SDS011;12307;50.828;6.080;2023-04-25T08:28:45;1.20;;;0.70;;
24143;SDS011;12307;50.828;6.080;2023-04-25T08:31:11;0.73;;;0.70;;
24143;SDS011;12307;50.828;6.080;2023-04-25T08:33:37;1.17;;;0.80;;
24143;SDS011;12307;50.828;6.080;2023-04-25T08:36:03;0.63;;;0.63;;
24143;SDS011;12307;50.828;6.080;2023-04-25T08:38:29;1.10;;;0.90;;
24143;SDS011;12307;50.828;6.080;2023-04-25T08:40:55;1.13;;;0.80;;
24143;SDS011;12307;50.828;6.080;2023-04-25T08:43:24;0.70;;;0.70;;
24143;SDS011;12307;50.828;6.080;2023-04-25T08:45:51;1.15;;;0.90;;
24143;SDS011;12307;50.828;6.080;2023-04-25T08:48:19;1.17;;;0.80;;
24143;SDS011;12307;50.828;6.080;2023-04-25T08:50:48;1.00;;;0.50;;
24143;SDS011;12307;50.828;6.080;2023-04-25T08:53:16;1.20;;;0.75;;
24143;SDS011;12307;50.828;6.080;2023-04-25T08:55:46;0.75;;;0.73;;
24143;SDS011;12307;50.828;6.080;2023-04-25T08:58:13;1.05;;;0.80;;
24143;SDS011;12307;50.828;6.080;2023-04-25T09:00:40;1.77;;;0.90;;
24143;SDS011;12307;50.828;6.080;2023-04-25T09:03:07;1.10;;;0.90;;
24143;SDS011;12307;50.828;6.080;2023-04-25T09:05:33;0.80;;;0.80;;
24143;SDS011;12307;50.828;6.080;2023-04-25T09:08:00;1.13;;;0.88;;
24143;SDS011;12307;50.828;6.080;2023-04-25T09:10:26;1.10;;;0.80;;
24143;SDS011;12307;50.828;6.080;2023-04-25T09:13:01;0.80;;;0.70;;
24143;SDS011;12307;50.828;6.080;2023-04-25T09:15:28;0.95;;;0.70;;
24143;SDS011;12307;50.828;6.080;2023-04-25T09:17:55;1.23;;;0.80;;
24143;SDS011;12307;50.828;6.080;2023-04-25T09:20:22;0.82;;;0.80;;
24143;SDS011;12307;50.828;6.080;2023-04-25T09:23:00;1.02;;;0.80;;
24143;SDS011;12307;50.828;6.080;2023-04-25T09:25:27;0.98;;;0.82;;
24143;SDS011;12307;50.828;6.080;2023-04-25T09:28:03;1.10;;;1.00;;
24143;SDS011;12307;50.828;6.080;2023-04-25T09:30:30;1.10;;;0.60;;
24143;SDS011;12307;50.828;6.080;2023-04-25T09:32:56;0.77;;;0.77;;
24143;SDS011;12307;50.828;6.080;2023-04-25T09:35:30;2.97;;;0.80;;
24143;SDS011;12307;50.828;6.080;2023-04-25T09:38:01;1.02;;;0.70;;
24143;SDS011;12307;50.828;6.080;2023-04-25T09:40:32;1.10;;;0.88;;
24143;SDS011;12307;50.828;6.080;2023-04-25T09:42:57;1.05;;;0.80;;
24143;SDS011;12307;50.828;6.080;2023-04-25T09:45:24;0.93;;;0.80;;
24143;SDS011;12307;50.828;6.080;2023-04-25T09:47:49;1.10;;;0.80;;
24143;SDS011;12307;50.828;6.080;2023-04-25T09:50:20;1.25;;;0.82;;
24143;SDS011;12307;50.828;6.080;2023-04-25T09:52:53;0.93;;;0.80;;
24143;SDS011;12307;50.828;6.080;2023-04-25T09:55:28;0.90;;;0.80;;
24143;SDS011;12307;50.828;6.080;2023-04-25T09:57:54;1.13;;;0.90;;
24143;SDS011;12307;50.828;6.080;2023-04-25T10:00:23;0.80;;;0.80;;
24143;SDS011;12307;50.828;6.080;2023-04-25T10:02:49;0.77;;;0.75;;
24143;SDS011;12307;50.828;6.080;2023-04-25T10:05:16;0.77;;;0.70;;
24143;SDS011;12307;50.828;6.080;2023-04-25T10:07:43;0.75;;;0.73;;
24143;SDS011;12307;50.828;6.080;2023-04-25T10:10:11;1.50;;;0.70;;
24143;SDS011;12307;50.828;6.080;2023-04-25T10:12:38;0.73;;;0.65;;
24143;SDS011;12307;50.828;6.080;2023-04-25T10:15:05;1.40;;;0.65;;
24143;SDS011;12307;50.828;6.080;2023-04-25T10:17:33;1.77;;;0.77;;
24143;SDS011;12307;50.828;6.080;2023-04-25T10:20:09;0.82;;;0.70;;
24143;SDS011;12307;50.828;6.080;2023-04-25T10:22:36;0.98;;;0.80;;
24143;SDS011;12307;50.828;6.080;2023-04-25T10:25:04;1.13;;;0.90;;
24143;SDS011;12307;50.828;6.080;2023-04-25T10:27:31;1.58;;;0.77;;
24143;SDS011;12307;50.828;6.080;2023-04-25T10:30:00;1.73;;;1.05;;
24143;SDS011;12307;50.828;6.080;2023-04-25T10:32:30;1.30;;;1.08;;
24143;SDS011;12307;50.828;6.080;2023-04-25T10:34:55;1.10;;;1.00;;
24143;SDS011;12307;50.828;6.080;2023-04-25T10:37:22;1.75;;;1.27;;
24143;SDS011;12307;50.828;6.080;2023-04-25T10:39:49;1.25;;;0.95;;
24143;SDS011;12307;50.828;6.080;2023-04-25T10:42:15;2.28;;;1.02;;
24143;SDS011;12307;50.828;6.080;2023-04-25T10:44:41;1.45;;;0.93;;
24143;SDS011;12307;50.828;6.080;2023-04-25T10:47:34;1.73;;;1.10;;
24143;SDS011;12307;50.828;6.080;2023-04-25T10:50:04;1.65;;;1.10;;
24143;SDS011;12307;50.828;6.080;2023-04-25T10:52:32;1.42;;;1.08;;
24143;SDS011;12307;50.828;6.080;2023-04-25T10:54:58;1.50;;;1.05;;
24143;SDS011;12307;50.828;6.080;2023-04-25T10:57:31;2.25;;;1.20;;
24143;SDS011;12307;50.828;6.080;2023-04-25T11:00:01;2.20;;;1.33;;
24143;SDS011;12307;50.828;6.080;2023-04-25T11:02:31;4.50;;;1.20;;
24143;SDS011;12307;50.828;6.080;2023-04-25T11:05:01;1.58;;;1.20;;
24143;SDS011;12307;50.828;6.080;2023-04-25T11:07:31;1.52;;;1.20;;
24143;SDS011;12307;50.828;6.080;2023-04-25T11:10:03;1.27;;;1.10;;
24143;SDS011;12307;50.828;6.080;2023-04-25T11:12:30;2.40;;;1.30;;
24143;SDS011;12307;50.828;6.080;2023-04-25T11:15:00;1.67;;;0.98;;
24143;SDS011;12307;50.828;6.080;2023-04-25T11:17:29;1.52;;;1.02;;
24143;SDS011;12307;50.828;6.080;2023-04-25T11:19:55;1.55;;;1.20;;
24143;SDS011;12307;50.828;6.080;2023-04-25T11:22:21;2.03;;;1.10;;
24143;SDS011;12307;50.828;6.080;2023-04-25T11:24:49;1.08;;;0.98;;
24143;SDS011;12307;50.828;6.080;2023-04-25T11:27:15;0.88;;;0.82;;
24143;SDS011;12307;50.828;6.080;2023-04-25T11:29:41;1.42;;;0.90;;
24143;SDS011;12307;50.828;6.080;2023-04-25T11:32:07;1.20;;;1.05;;
24143;SDS011;12307;50.828;6.080;2023-04-25T11:34:33;1.55;;;0.90;;
24143;SDS011;12307;50.828;6.080;2023-04-25T11:36:59;1.30;;;1.08;;
24143;SDS011;12307;50.828;6.080;2023-04-25T11:39:25;1.35;;;0.90;;
24143;SDS011;12307;50.828;6.080;2023-04-25T11:41:53;1.42;;;1.00;;
24143;SDS011;12307;50.828;6.080;2023-04-25T11:44:20;1.00;;;0.90;;
24143;SDS011;12307;50.828;6.080;2023-04-25T11:46:46;1.00;;;0.82;;
24143;SDS011;12307;50.828;6.080;2023-04-25T11:49:12;0.93;;;0.80;;
24143;SDS011;12307;50.828;6.080;2023-04-25T11:51:38;1.38;;;1.13;;
24143;SDS011;12307;50.828;6.080;2023-04-25T11:54:05;1.10;;;0.90;;
24143;SDS011;12307;50.828;6.080;2023-04-25T11:56:31;1.42;;;0.90;;
24143;SDS011;12307;50.828;6.080;2023-04-25T11:58:59;1.00;;;0.80;;
24143;SDS011;12307;50.828;6.080;2023-04-25T12:01:27;1.30;;;1.00;;
24143;SDS011;12307;50.828;6.080;2023-04-25T12:03:54;1.38;;;1.17;;
24143;SDS011;12307;50.828;6.080;2023-04-25T12:06:19;1.33;;;0.98;;
24143;SDS011;12307;50.828;6.080;2023-04-25T12:08:58;0.75;;;0.75;;
24143;SDS011;12307;50.828;6.080;2023-04-25T12:11:25;0.80;;;0.73;;
24143;SDS011;12307;50.828;6.080;2023-04-25T12:13:51;0.98;;;0.80;;
24143;SDS011;12307;50.828;6.080;2023-04-25T12:16:19;1.05;;;0.85;;
24143;SDS011;12307;50.828;6.080;2023-04-25T12:18:45;1.42;;;1.00;;
24143;SDS011;12307;50.828;6.080;2023-04-25T12:21:10;1.67;;;1.20;;
24143;SDS011;12307;50.828;6.080;2023-04-25T12:23:38;1.00;;;0.88;;
24143;SDS011;12307;50.828;6.080;2023-04-25T12:26:04;1.20;;;0.90;;
24143;SDS011;12307;50.828;6.080;2023-04-25T12:28:31;2.05;;;1.10;;
24143;SDS011;12307;50.828;6.080;2023-04-25T12:30:58;1.50;;;0.90;;
24143;SDS011;12307;50.828;6.080;2023-04-25T12:33:27;3.55;;;1.08;;
24143;SDS011;12307;50.828;6.080;2023-04-25T12:35:54;1.60;;;0.95;;
24143;SDS011;12307;50.828;6.080;2023-04-25T12:38:20;1.60;;;0.82;;
24143;SDS011;12307;50.828;6.080;2023-04-25T12:40:50;2.25;;;1.05;;
24143;SDS011;12307;50.828;6.080;2023-04-25T12:43:16;1.58;;;1.00;;
24143;SDS011;12307;50.828;6.080;2023-04-25T12:45:42;1.60;;;1.02;;
24143;SDS011;12307;50.828;6.080;2023-04-25T12:48:08;1.63;;;1.10;;
24143;SDS011;12307;50.828;6.080;2023-04-25T12:50:36;1.30;;;1.05;;
24143;SDS011;12307;50.828;6.080;2023-04-25T12:53:01;1.42;;;1.02;;
24143;SDS011;12307;50.828;6.080;2023-04-25T12:55:27;1.15;;;0.82;;
24143;SDS011;12307;50.828;6.080;2023-04-25T12:57:53;1.15;;;0.80;;
24143;SDS011;12307;50.828;6.080;2023-04-25T13:00:19;1.48;;;1.05;;
24143;SDS011;12307;50.828;6.080;2023-04-25T13:02:45;1.35;;;0.90;;
24143;SDS011;12307;50.828;6.080;2023-04-25T13:05:11;1.48;;;1.08;;
24143;SDS011;12307;50.828;6.080;2023-04-25T13:07:39;1.17;;;0.70;;
24143;SDS011;12307;50.828;6.080;2023-04-25T13:10:05;1.38;;;0.77;;
24143;SDS011;12307;50.828;6.080;2023-04-25T13:12:32;1.75;;;1.00;;
24143;SDS011;12307;50.828;6.080;2023-04-25T13:14:58;1.17;;;0.98;;
24143;SDS011;12307;50.828;6.080;2023-04-25T13:17:23;1.10;;;0.95;;
24143;SDS011;12307;50.828;6.080;2023-04-25T13:19:49;1.30;;;0.95;;
24143;SDS011;12307;50.828;6.080;2023-04-25T13:22:15;1.20;;;1.00;;
24143;SDS011;12307;50.828;6.080;2023-04-25T13:24:43;1.70;;;1.00;;
24143;SDS011;12307;50.828;6.080;2023-04-25T13:27:09;1.58;;;0.90;;
24143;SDS011;12307;50.828;6.080;2023-04-25T13:29:35;1.05;;;0.88;;
24143;SDS011;12307;50.828;6.080;2023-04-25T13:32:03;1.30;;;0.90;;
24143;SDS011;12307;50.828;6.080;2023-04-25T13:34:29;1.10;;;0.80;;
24143;SDS011;12307;50.828;6.080;2023-04-25T13:36:55;1.15;;;0.90;;
24143;SDS011;12307;50.828;6.080;2023-04-25T13:39:21;1.25;;;0.80;;
24143;SDS011;12307;50.828;6.080;2023-04-25T13:41:48;1.77;;;1.00;;
24143;SDS011;12307;50.828;6.080;2023-04-25T13:44:14;1.30;;;0.88;;
24143;SDS011;12307;50.828;6.080;2023-04-25T13:46:40;1.55;;;0.80;;
24143;SDS011;12307;50.828;6.080;2023-04-25T13:49:05;0.93;;;0.73;;
24143;SDS011;12307;50.828;6.080;2023-04-25T13:51:31;2.28;;;0.95;;
24143;SDS011;12307;50.828;6.080;2023-04-25T13:53:57;0.98;;;0.88;;
24143;SDS011;12307;50.828;6.080;2023-04-25T13:56:23;0.95;;;0.80;;
24143;SDS011;12307;50.828;6.080;2023-04-25T13:58:50;1.15;;;0.88;;
24143;SDS011;12307;50.828;6.080;2023-04-25T14:01:16;0.90;;;0.63;;
24143;SDS011;12307;50.828;6.080;2023-04-25T14:03:42;0.95;;;0.80;;
24143;SDS011;12307;50.828;6.080;2023-04-25T14:06:08;0.93;;;0.82;;
24143;SDS011;12307;50.828;6.080;2023-04-25T14:08:34;0.70;;;0.70;;
24143;SDS011;12307;50.828;6.080;2023-04-25T14:10:59;1.00;;;0.90;;
24143;SDS011;12307;50.828;6.080;2023-04-25T14:13:25;1.10;;;0.80;;
24143;SDS011;12307;50.828;6.080;2023-04-25T14:15:52;0.70;;;0.70;;
24143;SDS011;12307;50.828;6.080;2023-04-25T14:18:18;0.75;;;0.65;;
24143;SDS011;12307;50.828;6.080;2023-04-25T14:20:44;0.80;;;0.65;;
24143;SDS011;12307;50.828;6.080;2023-04-25T14:23:10;1.13;;;0.80;;
24143;SDS011;12307;50.828;6.080;2023-04-25T14:25:36;1.60;;;0.73;;
24143;SDS011;12307;50.828;6.080;2023-04-25T14:28:01;1.08;;;0.88;;
24143;SDS011;12307;50.828;6.080;2023-04-25T14:30:27;0.88;;;0.80;;
24143;SDS011;12307;50.828;6.080;2023-04-25T14:32:54;1.15;;;0.93;;
24143;SDS011;12307;50.828;6.080;2023-04-25T14:35:20;1.60;;;0.80;;
24143;SDS011;12307;50.828;6.080;2023-04-25T14:37:46;0.60;;;0.60;;
24143;SDS011;12307;50.828;6.080;2023-04-25T14:40:12;1.02;;;0.80;;
24143;SDS011;12307;50.828;6.080;2023-04-25T14:42:40;1.15;;;0.90;;
24143;SDS011;12307;50.828;6.080;2023-04-25T14:45:06;1.33;;;0.82;;